Aeroporto :
LOGIN :

Iscrizione | Disclaimer

   EN    FR    IT 

 










Sommario :    VFR   VFR Marginale   IFR   IFR Intensivo   IFR Molto Intensivo
Visibilità : 
Base nubi : 
>= 8 km
>= 3000ft
5 / 8 km
1000 / 3000 ft
1500m / 5 km
500 / 1000 ft
800 / 1500m
200 / 500 ft
< 800m
< 200 ft
Simboli :   Temporali  Nebbia  Neve Forte  Precipitazioni Forti  Vento > 20 kt
SIGMETs :   Varie  Temporali  Ghiacco  Turbolenza  Onda orograficha  Ceneri Vulcaniche







- Altitudine del aeroporto : 19 ft
- Codice IATA : LCY
- Carte del aeroporto


EGLC - London City

ULTIMO METAR :
  • 261150Z AUTO VRB08KT 9999 BKN017 OVC022 19/15 Q1028

METARs OBSOLETI :
  • 261120Z AUTO 06008KT 020V090 9999 OVC015 19/15 Q1028
  • 261050Z AUTO 06006KT 010V110 9999 OVC013 18/15 Q1029
  • 261020Z AUTO 06009KT 9999 BKN011 OVC016 18/14 Q1028
  • 260950Z AUTO 02005KT 340V080 9999 OVC010 17/14 Q1028
  • 260920Z AUTO 04007KT 320V100 9999 BKN008 OVC012 17/14 Q1028

TAF TAF EGLC
Valido dal 26 a 12 ore il 26 a 21 ore UTC


261059Z 2612/2621 03010KT 9999 OVC012
BECMG 2612/2615 SCT020
ATIS : +44 20 7646 0224
Nessun NOTAM noto per questo aeroporto.



MetMap, La meteo Aeronautica in un colpo d'occhio ! - Copyright ORBIFLY Dicembre 2007 - Disclaimer

ORBIFLY MET'MAP TEAM :

Programmazione e sviluppo : Alexandra Zaïnal
Concezione e sviluppo : Baudouin d'Aumeries
Co-Programmazione e sviluppo : Marc-Olivier Méhu
Supporto tecnico e logistico : Manuel Goepfert
Aiuto per la traduzione : Arnaldo La Scala

Contatto : metmap@orbifly.com




FONTI E CREDITI :

   NOAA